Time;durP1;ratioP1;P1;durP2;ratioP2;P2;SDS_P1;SDS_P2;PMS_P1;PMS_P2;Temp;Humidity;BMP_temperature;BMP_pressure;BME280_temperature;BME280_humidity;BME280_pressure;Samples;Min_cycle;Max_cycle;Signal;HPM_P1;HPM_P2
2022/06/26 00:00:05;;;;;;;;;;;24.60;55.30;;;;;;5107342;28;20433;-54
2022/06/26 00:02:32;;;;;;;;;;;24.60;55.90;;;;;;5106169;27;19923;-52
2022/06/26 00:04:59;;;;;;;;;;;24.60;55.40;;;;;;5107040;28;20356;-55
2022/06/26 00:07:27;;;;;;;;;;;24.60;55.40;;;;;;5118302;27;19924;-56
2022/06/26 00:09:54;;;;;;;;;;;24.60;55.40;;;;;;5126261;27;19923;-56
2022/06/26 00:12:21;;;;;;;;;;;24.60;55.40;;;;;;5100039;28;19924;-55
2022/06/26 00:14:47;;;;;;;;;;;24.60;55.40;;;;;;5105975;28;19923;-55
2022/06/26 00:17:14;;;;;;;;;;;24.60;55.50;;;;;;5109585;27;20019;-55
2022/06/26 00:19:41;;;;;;;;;;;24.60;55.50;;;;;;5108203;27;20384;-56
2022/06/26 00:22:08;;;;;;;;;;;24.60;55.50;;;;;;5110637;28;20272;-55
2022/06/26 00:24:37;;;;;;;;;;;24.60;55.50;;;;;;5109675;28;19929;-55
2022/06/26 00:27:06;;;;;;;;;;;24.60;55.50;;;;;;5108356;28;19926;-56
2022/06/26 00:29:32;;;;;;;;;;;24.60;55.60;;;;;;5120977;28;19927;-55
2022/06/26 00:31:59;;;;;;;;;;;24.60;55.60;;;;;;5107266;28;19927;-54
2022/06/26 00:34:26;;;;;;;;;;;24.60;55.60;;;;;;5123816;28;19927;-56
2022/06/26 00:36:53;;;;;;;;;;;24.60;55.70;;;;;;5121312;28;19951;-56
2022/06/26 00:39:19;;;;;;;;;;;24.60;55.70;;;;;;5105452;28;20291;-54
2022/06/26 00:41:48;;;;;;;;;;;24.50;55.70;;;;;;5110268;28;19962;-55
2022/06/26 00:44:15;;;;;;;;;;;24.60;55.80;;;;;;5107933;28;19984;-55
2022/06/26 00:46:41;;;;;;;;;;;24.60;55.80;;;;;;5105661;28;19926;-55
2022/06/26 00:49:08;;;;;;;;;;;24.60;55.80;;;;;;5123404;28;19927;-55
2022/06/26 00:51:35;;;;;;;;;;;24.60;55.90;;;;;;5106020;28;20018;-55
2022/06/26 00:54:02;;;;;;;;;;;24.60;55.90;;;;;;5121812;28;20360;-54
2022/06/26 00:56:29;;;;;;;;;;;24.60;56.00;;;;;;5121435;28;19984;-56
2022/06/26 00:58:57;;;;;;;;;;;24.60;56.00;;;;;;5102882;28;19931;-52
2022/06/26 01:01:23;;;;;;;;;;;24.60;56.00;;;;;;5106386;28;20376;-54
2022/06/26 01:03:50;;;;;;;;;;;24.50;56.00;;;;;;5102079;28;19927;-54
2022/06/26 01:06:17;;;;;;;;;;;24.50;55.90;;;;;;5108246;28;20364;-56
2022/06/26 01:08:44;;;;;;;;;;;24.50;56.00;;;;;;5100041;28;20385;-55
2022/06/26 01:11:18;;;;;;;;;;;24.50;56.00;;;;;;5108338;28;19966;-56
2022/06/26 01:13:45;;;;;;;;;;;24.60;56.00;;;;;;5116832;28;19942;-55
2022/06/26 01:16:14;;;;;;;;;;;24.50;56.00;;;;;;5103955;28;20019;-55
2022/06/26 01:18:41;;;;;;;;;;;24.50;56.00;;;;;;5109422;28;20351;-55
2022/06/26 01:21:07;;;;;;;;;;;24.50;56.00;;;;;;5123664;28;19927;-56
2022/06/26 01:23:36;;;;;;;;;;;24.50;56.10;;;;;;5106730;28;19979;-58
2022/06/26 01:26:03;;;;;;;;;;;24.50;56.10;;;;;;5105837;28;19920;-58
2022/06/26 01:28:29;;;;;;;;;;;24.60;56.10;;;;;;5123388;27;19919;-58
2022/06/26 01:30:56;;;;;;;;;;;24.50;56.10;;;;;;5106143;27;20326;-58
2022/06/26 01:33:23;;;;;;;;;;;24.50;56.10;;;;;;5128533;27;19934;-57
2022/06/26 01:35:50;;;;;;;;;;;24.50;56.10;;;;;;5111350;27;20059;-57
2022/06/26 01:38:17;;;;;;;;;;;24.50;56.10;;;;;;5101501;27;19924;-57
2022/06/26 01:40:45;;;;;;;;;;;24.50;56.10;;;;;;5111919;27;19919;-58
2022/06/26 01:43:12;;;;;;;;;;;24.50;56.10;;;;;;5108827;27;20349;-58
2022/06/26 01:45:42;;;;;;;;;;;24.50;56.10;;;;;;5110431;27;19924;-58
2022/06/26 01:48:09;;;;;;;;;;;24.50;56.10;;;;;;5127559;27;19927;-54
2022/06/26 01:50:35;;;;;;;;;;;24.50;56.10;;;;;;5105300;28;19919;-59
2022/06/26 01:53:02;;;;;;;;;;;24.50;56.10;;;;;;5106190;27;19919;-58
2022/06/26 01:55:29;;;;;;;;;;;24.50;56.10;;;;;;5110065;27;19919;-58
2022/06/26 01:57:57;;;;;;;;;;;24.50;56.10;;;;;;5114185;27;19924;-56
2022/06/26 02:00:24;;;;;;;;;;;24.50;56.20;;;;;;5109271;27;19931;-58
2022/06/26 02:02:50;;;;;;;;;;;24.50;56.20;;;;;;5122791;27;20014;-58
2022/06/26 02:05:17;;;;;;;;;;;24.50;56.20;;;;;;5110651;27;19931;-58
2022/06/26 02:07:44;;;;;;;;;;;24.50;56.20;;;;;;5110431;27;19919;-58
2022/06/26 02:15:40;;;;;;;;;;;24.50;56.30;;;;;;5106580;27;20318;-55
2022/06/26 02:18:07;;;;;;;;;;;24.60;56.40;;;;;;5105610;27;20253;-58
2022/06/26 02:20:34;;;;;;;;;;;24.50;56.30;;;;;;5107426;27;19926;-59
2022/06/26 02:23:01;;;;;;;;;;;24.50;56.20;;;;;;5109138;27;19920;-56
2022/06/26 02:25:27;;;;;;;;;;;24.50;56.20;;;;;;5108317;27;20287;-54
2022/06/26 02:27:54;;;;;;;;;;;24.50;56.20;;;;;;5105782;27;19976;-55
2022/06/26 02:30:22;;;;;;;;;;;24.50;56.30;;;;;;5126080;27;19981;-52
2022/06/26 02:32:49;;;;;;;;;;;24.50;56.30;;;;;;5125727;27;19920;-55
2022/06/26 02:35:16;;;;;;;;;;;24.50;56.30;;;;;;5109072;27;19991;-56
2022/06/26 02:37:43;;;;;;;;;;;24.50;56.30;;;;;;5113001;27;19971;-56
2022/06/26 02:40:10;;;;;;;;;;;24.50;56.30;;;;;;5122709;27;19920;-54
2022/06/26 02:42:37;;;;;;;;;;;24.50;56.40;;;;;;5109739;27;19925;-53
2022/06/26 02:45:04;;;;;;;;;;;24.50;56.40;;;;;;5125257;27;19921;-56
2022/06/26 02:47:32;;;;;;;;;;;24.50;56.40;;;;;;5121300;27;20325;-56
2022/06/26 02:49:59;;;;;;;;;;;24.50;56.40;;;;;;5120425;27;20348;-57
2022/06/26 02:52:28;;;;;;;;;;;24.50;56.40;;;;;;5106605;27;19923;-57
2022/06/26 02:54:55;;;;;;;;;;;24.50;56.50;;;;;;5107850;27;19935;-56
2022/06/26 02:57:21;;;;;;;;;;;24.50;56.50;;;;;;5108424;27;19919;-57
2022/06/26 02:59:48;;;;;;;;;;;24.50;56.50;;;;;;5124734;27;20434;-56
2022/06/26 03:02:15;;;;;;;;;;;24.50;56.50;;;;;;5125469;27;19923;-57
2022/06/26 03:04:43;;;;;;;;;;;24.50;56.50;;;;;;5104134;27;19919;-57
2022/06/26 03:07:10;;;;;;;;;;;24.50;56.60;;;;;;5126154;27;19927;-57
2022/06/26 03:09:37;;;;;;;;;;;24.50;56.60;;;;;;5106687;27;20411;-57
2022/06/26 03:12:04;;;;;;;;;;;24.50;56.60;;;;;;5110515;27;19927;-58
2022/06/26 03:14:31;;;;;;;;;;;24.50;56.60;;;;;;5107164;27;19931;-56
2022/06/26 03:16:58;;;;;;;;;;;24.50;56.60;;;;;;5122747;27;20015;-57
2022/06/26 03:19:24;;;;;;;;;;;24.50;56.60;;;;;;5103978;27;20078;-56
2022/06/26 03:21:52;;;;;;;;;;;24.50;56.60;;;;;;5128174;27;20035;-57
2022/06/26 03:24:19;;;;;;;;;;;24.50;56.60;;;;;;5108022;27;19919;-57
2022/06/26 03:26:47;;;;;;;;;;;24.50;56.60;;;;;;5107617;27;19936;-57
2022/06/26 03:29:14;;;;;;;;;;;24.50;56.70;;;;;;5124093;27;20376;-56
2022/06/26 03:31:41;;;;;;;;;;;24.50;56.70;;;;;;5103702;27;20353;-56
2022/06/26 03:34:07;;;;;;;;;;;24.50;56.70;;;;;;5111725;27;19957;-57
2022/06/26 03:36:34;;;;;;;;;;;24.50;56.70;;;;;;5105760;27;19926;-57
2022/06/26 03:39:03;;;;;;;;;;;24.50;56.70;;;;;;5110058;27;20017;-56
2022/06/26 03:41:29;;;;;;;;;;;24.50;56.70;;;;;;5109954;27;19928;-57
2022/06/26 03:43:56;;;;;;;;;;;24.50;56.70;;;;;;5124175;27;19942;-57
2022/06/26 03:46:23;;;;;;;;;;;24.50;56.70;;;;;;5105083;27;19981;-56
2022/06/26 03:48:49;;;;;;;;;;;24.50;56.70;;;;;;5108356;27;19919;-57
2022/06/26 03:51:16;;;;;;;;;;;24.50;56.70;;;;;;5105806;28;19969;-55
2022/06/26 03:53:43;;;;;;;;;;;24.50;56.70;;;;;;5118743;27;19964;-53
2022/06/26 03:56:11;;;;;;;;;;;24.50;56.70;;;;;;5107227;27;19919;-57
2022/06/26 03:58:37;;;;;;;;;;;24.50;56.70;;;;;;5105335;27;19938;-58
2022/06/26 04:01:04;;;;;;;;;;;24.50;56.70;;;;;;5112179;27;19972;-57
2022/06/26 04:03:31;;;;;;;;;;;24.50;56.70;;;;;;5111076;27;19928;-58
2022/06/26 04:05:59;;;;;;;;;;;24.50;56.70;;;;;;5105262;27;19932;-56
2022/06/26 04:08:25;;;;;;;;;;;24.50;56.70;;;;;;5110283;27;19923;-56
2022/06/26 04:10:52;;;;;;;;;;;24.40;56.70;;;;;;5110319;27;19936;-56
2022/06/26 04:13:20;;;;;;;;;;;24.50;56.70;;;;;;5107465;28;20391;-55
2022/06/26 04:15:58;;;;;;;;;;;24.50;56.70;;;;;;5119691;27;20415;-53
2022/06/26 04:18:25;;;;;;;;;;;24.40;56.70;;;;;;5106636;28;19927;-57
2022/06/26 04:20:52;;;;;;;;;;;24.50;56.70;;;;;;5108649;28;19955;-56
2022/06/26 04:23:19;;;;;;;;;;;24.50;56.70;;;;;;5109726;28;20368;-57
2022/06/26 04:25:46;;;;;;;;;;;24.40;56.70;;;;;;5120194;28;19930;-57
2022/06/26 04:28:12;;;;;;;;;;;24.50;56.80;;;;;;5107778;28;20008;-56
2022/06/26 04:30:40;;;;;;;;;;;24.50;56.80;;;;;;5109353;28;19962;-56
2022/06/26 04:33:07;;;;;;;;;;;24.40;56.70;;;;;;5109415;28;19931;-54
2022/06/26 04:35:34;;;;;;;;;;;24.50;56.80;;;;;;5107907;28;19923;-53
2022/06/26 04:38:01;;;;;;;;;;;24.40;56.70;;;;;;5108144;28;19956;-57
2022/06/26 04:40:28;;;;;;;;;;;24.50;56.80;;;;;;5106982;28;19924;-57
2022/06/26 04:42:55;;;;;;;;;;;24.50;56.80;;;;;;5107058;28;19927;-57
2022/06/26 04:45:22;;;;;;;;;;;24.40;56.70;;;;;;5110306;28;19977;-54
2022/06/26 04:47:50;;;;;;;;;;;24.40;56.70;;;;;;5102935;28;19970;-57
2022/06/26 04:50:17;;;;;;;;;;;24.40;56.80;;;;;;5120733;28;19973;-56
2022/06/26 04:52:44;;;;;;;;;;;24.40;56.70;;;;;;5104163;28;19923;-57
2022/06/26 04:55:11;;;;;;;;;;;24.40;56.70;;;;;;5123467;28;19935;-55
2022/06/26 04:57:37;;;;;;;;;;;24.40;56.70;;;;;;5120365;28;19931;-57
2022/06/26 05:00:05;;;;;;;;;;;24.40;56.80;;;;;;5100094;28;20019;-55
2022/06/26 05:02:31;;;;;;;;;;;24.40;56.80;;;;;;5118614;28;19924;-57
2022/06/26 05:05:00;;;;;;;;;;;24.40;56.80;;;;;;5103976;27;20022;-55
2022/06/26 05:07:26;;;;;;;;;;;24.40;56.80;;;;;;5126478;27;20370;-54
2022/06/26 05:09:53;;;;;;;;;;;24.40;56.80;;;;;;5113299;27;19959;-57
2022/06/26 05:12:20;;;;;;;;;;;24.40;56.80;;;;;;5104989;27;19927;-58
2022/06/26 05:14:46;;;;;;;;;;;24.40;56.70;;;;;;5107867;27;19959;-55
2022/06/26 05:17:13;;;;;;;;;;;24.40;56.80;;;;;;5111322;27;19919;-56
2022/06/26 05:19:40;;;;;;;;;;;24.40;56.80;;;;;;5110928;27;20404;-53
2022/06/26 05:22:08;;;;;;;;;;;24.40;56.80;;;;;;5125342;27;20428;-56
2022/06/26 05:24:36;;;;;;;;;;;24.40;56.80;;;;;;5124796;27;19930;-57
2022/06/26 05:27:02;;;;;;;;;;;24.40;56.80;;;;;;5113689;27;19924;-56
2022/06/26 05:29:29;;;;;;;;;;;24.40;56.70;;;;;;5113584;27;19919;-57
2022/06/26 05:31:56;;;;;;;;;;;24.50;56.80;;;;;;5112545;27;19931;-57
2022/06/26 05:34:23;;;;;;;;;;;24.40;57.40;;;;;;5126378;27;19931;-57
2022/06/26 05:36:49;;;;;;;;;;;24.40;56.80;;;;;;5126338;27;19927;-57
2022/06/26 05:39:17;;;;;;;;;;;24.40;56.80;;;;;;5111421;27;19923;-55
2022/06/26 05:41:44;;;;;;;;;;;24.40;56.70;;;;;;5110457;27;19920;-57
2022/06/26 05:44:11;;;;;;;;;;;24.50;56.90;;;;;;5125347;27;19930;-57
2022/06/26 05:46:41;;;;;;;;;;;24.50;56.80;;;;;;5112144;27;19984;-54
2022/06/26 05:49:11;;;;;;;;;;;24.40;56.80;;;;;;5111389;27;19920;-55
2022/06/26 05:51:37;;;;;;;;;;;24.40;56.80;;;;;;5110000;27;19923;-57
2022/06/26 05:54:04;;;;;;;;;;;24.50;56.80;;;;;;5109980;27;19955;-56
2022/06/26 05:56:32;;;;;;;;;;;24.50;56.80;;;;;;5107310;27;19959;-56
2022/06/26 05:59:02;;;;;;;;;;;24.50;56.80;;;;;;5111842;27;19927;-55
2022/06/26 06:01:28;;;;;;;;;;;24.50;56.90;;;;;;5119925;27;19965;-57
2022/06/26 06:03:55;;;;;;;;;;;24.50;56.90;;;;;;5127639;27;20007;-57
2022/06/26 06:06:22;;;;;;;;;;;24.50;56.90;;;;;;5113377;27;19920;-57
2022/06/26 06:08:49;;;;;;;;;;;24.50;56.90;;;;;;5110838;27;19954;-51
2022/06/26 06:11:16;;;;;;;;;;;24.50;56.90;;;;;;5108375;27;19923;-58
2022/06/26 06:13:44;;;;;;;;;;;24.50;56.90;;;;;;5110227;27;20314;-55
2022/06/26 06:16:10;;;;;;;;;;;24.50;56.90;;;;;;5120319;27;20371;-57
2022/06/26 06:18:37;;;;;;;;;;;24.50;56.90;;;;;;5108775;27;19923;-56
2022/06/26 06:21:04;;;;;;;;;;;24.50;57.00;;;;;;5108092;27;19927;-56
2022/06/26 06:23:31;;;;;;;;;;;24.50;56.90;;;;;;5110576;27;19919;-58
2022/06/26 06:25:58;;;;;;;;;;;24.50;56.90;;;;;;5100744;27;19919;-57
2022/06/26 06:28:25;;;;;;;;;;;24.50;56.90;;;;;;5108336;27;20350;-57
2022/06/26 06:30:53;;;;;;;;;;;24.50;57.00;;;;;;5107943;27;19920;-57
2022/06/26 06:33:19;;;;;;;;;;;24.50;56.90;;;;;;5109582;27;19945;-57
2022/06/26 06:35:48;;;;;;;;;;;24.50;57.50;;;;;;5107834;27;19923;-57
2022/06/26 06:38:15;;;;;;;;;;;24.50;57.00;;;;;;5123759;27;19973;-57
2022/06/26 06:40:42;;;;;;;;;;;24.50;57.00;;;;;;5105698;27;19919;-57
2022/06/26 06:43:11;;;;;;;;;;;24.50;57.00;;;;;;5124277;27;19923;-57
2022/06/26 06:45:38;;;;;;;;;;;24.50;57.00;;;;;;5106090;27;19935;-56
2022/06/26 06:48:08;;;;;;;;;;;24.50;57.00;;;;;;5122844;27;19988;-57
2022/06/26 06:50:35;;;;;;;;;;;24.50;57.10;;;;;;5105778;27;20340;-57
2022/06/26 06:53:01;;;;;;;;;;;24.50;57.10;;;;;;5124626;27;20025;-55
2022/06/26 06:55:28;;;;;;;;;;;24.50;57.10;;;;;;5104237;27;19996;-57
2022/06/26 06:57:55;;;;;;;;;;;24.50;57.10;;;;;;5104516;27;20287;-56
2022/06/26 07:00:22;;;;;;;;;;;24.50;57.10;;;;;;5107837;27;20356;-57
2022/06/26 07:02:49;;;;;;;;;;;24.50;57.10;;;;;;5104052;27;20257;-58
2022/06/26 07:05:19;;;;;;;;;;;24.50;57.10;;;;;;5103978;27;19919;-57
2022/06/26 07:07:45;;;;;;;;;;;24.50;57.00;;;;;;5104743;27;19955;-57
2022/06/26 07:10:12;;;;;;;;;;;24.50;57.00;;;;;;5108845;27;19992;-57
2022/06/26 07:12:39;;;;;;;;;;;24.50;57.00;;;;;;5104663;27;19931;-57
2022/06/26 07:15:06;;;;;;;;;;;24.50;57.00;;;;;;5122300;27;19926;-56
2022/06/26 07:17:33;;;;;;;;;;;24.50;56.90;;;;;;5105584;27;19931;-55
2022/06/26 07:20:00;;;;;;;;;;;24.50;56.90;;;;;;5125152;27;19932;-57
2022/06/26 07:22:28;;;;;;;;;;;24.50;56.90;;;;;;5122786;27;20033;-57
2022/06/26 07:24:55;;;;;;;;;;;24.50;56.90;;;;;;5111382;27;19932;-57
2022/06/26 07:27:22;;;;;;;;;;;24.50;56.90;;;;;;5124750;27;20241;-57
2022/06/26 07:29:49;;;;;;;;;;;24.60;57.00;;;;;;5108293;27;20512;-55
2022/06/26 07:32:15;;;;;;;;;;;24.50;56.80;;;;;;5107054;27;20241;-56
2022/06/26 07:34:42;;;;;;;;;;;24.60;56.90;;;;;;5123360;27;19995;-57
2022/06/26 07:37:09;;;;;;;;;;;24.60;56.90;;;;;;5106682;27;19920;-57
2022/06/26 07:39:37;;;;;;;;;;;24.60;56.90;;;;;;5104168;27;19919;-56
2022/06/26 07:42:05;;;;;;;;;;;24.60;57.00;;;;;;5108603;27;20531;-57
2022/06/26 07:44:32;;;;;;;;;;;24.60;56.90;;;;;;5121284;27;19923;-56
2022/06/26 07:46:58;;;;;;;;;;;24.60;57.00;;;;;;5104507;27;19964;-57
2022/06/26 07:49:25;;;;;;;;;;;24.60;57.10;;;;;;5105525;27;19970;-57
2022/06/26 07:51:52;;;;;;;;;;;24.60;57.10;;;;;;5104760;27;19920;-57
2022/06/26 07:54:18;;;;;;;;;;;24.60;57.20;;;;;;5112184;27;20512;-56
2022/06/26 07:56:48;;;;;;;;;;;24.60;57.10;;;;;;5110695;28;19920;-57
2022/06/26 07:59:16;;;;;;;;;;;24.60;57.00;;;;;;5112170;27;19950;-56
2022/06/26 08:01:42;;;;;;;;;;;24.60;57.00;;;;;;5101366;27;20339;-56
2022/06/26 08:04:09;;;;;;;;;;;24.60;56.90;;;;;;5103284;28;20001;-58
2022/06/26 08:06:36;;;;;;;;;;;24.60;56.70;;;;;;5098819;27;19979;-58
2022/06/26 08:09:03;;;;;;;;;;;24.60;56.40;;;;;;5099881;28;19997;-58
2022/06/26 08:11:29;;;;;;;;;;;24.60;56.00;;;;;;5123507;27;20320;-57
2022/06/26 08:13:57;;;;;;;;;;;24.60;55.80;;;;;;5124448;27;19977;-58
2022/06/26 08:16:24;;;;;;;;;;;24.60;55.60;;;;;;5120683;27;19926;-58
2022/06/26 08:18:51;;;;;;;;;;;24.60;55.50;;;;;;5108763;27;19920;-57
2022/06/26 08:24:02;;;;;;;;;;;24.60;55.20;;;;;;5104804;27;20023;-58
2022/06/26 08:26:28;;;;;;;;;;;24.60;55.20;;;;;;5122231;27;19924;-57
2022/06/26 08:28:55;;;;;;;;;;;24.60;54.80;;;;;;5122616;28;19919;-56
2022/06/26 08:31:23;;;;;;;;;;;24.60;54.90;;;;;;5107665;28;19920;-56
2022/06/26 08:33:50;;;;;;;;;;;24.60;54.90;;;;;;5102810;28;19972;-58
2022/06/26 08:36:17;;;;;;;;;;;24.60;54.80;;;;;;5119953;28;19935;-56
2022/06/26 08:38:44;;;;;;;;;;;24.60;54.50;;;;;;5106351;27;20598;-58
2022/06/26 08:41:11;;;;;;;;;;;24.60;54.50;;;;;;5124464;27;20014;-58
2022/06/26 08:43:38;;;;;;;;;;;24.60;54.40;;;;;;5106957;27;20280;-57
2022/06/26 08:46:05;;;;;;;;;;;24.60;54.30;;;;;;5108716;27;20176;-56
2022/06/26 08:48:36;;;;;;;;;;;24.60;54.20;;;;;;5125111;27;19919;-56
2022/06/26 08:51:03;;;;;;;;;;;24.60;54.20;;;;;;5122847;27;19977;-58
2022/06/26 08:53:30;;;;;;;;;;;24.60;54.10;;;;;;5093878;28;19919;-56
2022/06/26 08:55:57;;;;;;;;;;;24.60;54.10;;;;;;5111743;27;19923;-57
2022/06/26 08:58:24;;;;;;;;;;;24.60;54.00;;;;;;5105628;27;20314;-58
2022/06/26 09:00:51;;;;;;;;;;;24.60;54.10;;;;;;5114040;27;19928;-58
2022/06/26 09:03:18;;;;;;;;;;;24.60;54.10;;;;;;5114193;27;20382;-58
2022/06/26 09:05:46;;;;;;;;;;;24.60;54.00;;;;;;5113264;27;19920;-57
2022/06/26 09:08:19;;;;;;;;;;;24.60;54.00;;;;;;5115500;27;19926;-58
2022/06/26 09:10:46;;;;;;;;;;;24.60;54.00;;;;;;5118200;27;20272;-58
2022/06/26 09:13:13;;;;;;;;;;;24.70;54.10;;;;;;5122485;27;19920;-57
2022/06/26 09:15:40;;;;;;;;;;;24.70;54.10;;;;;;5107331;27;19919;-58
2022/06/26 09:18:07;;;;;;;;;;;24.60;54.00;;;;;;5120186;27;20375;-57
2022/06/26 09:20:34;;;;;;;;;;;24.70;54.10;;;;;;5113022;27;19919;-58
2022/06/26 09:23:02;;;;;;;;;;;24.70;54.10;;;;;;5109099;27;19950;-57
2022/06/26 09:25:36;;;;;;;;;;;24.70;54.00;;;;;;5103477;27;19923;-57
2022/06/26 09:28:07;;;;;;;;;;;24.70;54.00;;;;;;5118237;27;20016;-58
2022/06/26 09:30:33;;;;;;;;;;;24.70;54.00;;;;;;5112387;27;19931;-58
2022/06/26 09:33:01;;;;;;;;;;;24.70;54.10;;;;;;5101630;28;19927;-58
2022/06/26 09:35:28;;;;;;;;;;;24.70;54.00;;;;;;5131322;27;19923;-58
2022/06/26 09:37:55;;;;;;;;;;;24.70;53.90;;;;;;5114095;27;20420;-57
2022/06/26 09:40:23;;;;;;;;;;;24.70;53.90;;;;;;5110857;27;20018;-57
2022/06/26 09:42:51;;;;;;;;;;;24.70;53.80;;;;;;5102576;27;19920;-58
2022/06/26 09:45:17;;;;;;;;;;;24.70;53.80;;;;;;5099799;27;19958;-58
2022/06/26 09:47:44;;;;;;;;;;;24.80;53.80;;;;;;5103699;28;19920;-57
2022/06/26 09:50:11;;;;;;;;;;;24.80;53.80;;;;;;5117092;27;20275;-58
2022/06/26 09:52:38;;;;;;;;;;;24.80;53.80;;;;;;5105744;27;19942;-57
2022/06/26 09:55:05;;;;;;;;;;;24.80;53.90;;;;;;5123246;27;19931;-57
2022/06/26 09:57:33;;;;;;;;;;;24.80;53.90;;;;;;5111277;27;20382;-56
2022/06/26 10:00:00;;;;;;;;;;;24.80;53.90;;;;;;5109645;27;19969;-58
2022/06/26 10:07:55;;;;;;;;;;;24.80;54.00;;;;;;5094632;28;19919;-56
2022/06/26 10:10:22;;;;;;;;;;;24.90;54.10;;;;;;5109563;27;19923;-57
2022/06/26 10:12:52;;;;;;;;;;;24.90;54.10;;;;;;5099188;27;19923;-56
2022/06/26 10:15:19;;;;;;;;;;;24.90;54.10;;;;;;5110916;27;20006;-59
2022/06/26 10:17:50;;;;;;;;;;;24.90;54.10;;;;;;5108260;27;19919;-58
2022/06/26 10:20:19;;;;;;;;;;;24.90;54.10;;;;;;5110894;27;19931;-58
2022/06/26 10:22:46;;;;;;;;;;;24.90;54.10;;;;;;5125911;27;20421;-57
2022/06/26 10:25:21;;;;;;;;;;;24.90;53.90;;;;;;5106779;27;19919;-58
2022/06/26 10:27:48;;;;;;;;;;;24.90;53.70;;;;;;5106921;27;19972;-58
2022/06/26 10:30:16;;;;;;;;;;;24.90;53.50;;;;;;5118462;27;19920;-56
2022/06/26 10:32:43;;;;;;;;;;;24.90;53.60;;;;;;5113206;27;19927;-58
2022/06/26 10:35:10;;;;;;;;;;;24.90;53.40;;;;;;5107275;27;19927;-58
2022/06/26 10:37:41;;;;;;;;;;;24.90;53.50;;;;;;5114154;27;20318;-58
2022/06/26 10:42:52;;;;;;;;;;;24.90;53.40;;;;;;5122737;27;19962;-58
2022/06/26 10:43:04;;;;;;;;;;;24.90;53.40;;;;;;5120426;27;19924;-56
2022/06/26 10:45:33;;;;;;;;;;;24.90;53.40;;;;;;5099256;27;20116;-57
2022/06/26 10:48:00;;;;;;;;;;;25.00;53.30;;;;;;5108977;28;19996;-59
2022/06/26 10:50:32;;;;;;;;;;;25.00;53.20;;;;;;5112779;27;19923;-58
2022/06/26 10:53:15;;;;;;;;;;;25.00;53.30;;;;;;5113497;27;20368;-57
2022/06/26 10:55:42;;;;;;;;;;;25.00;53.20;;;;;;5103815;28;19924;-57
2022/06/26 10:58:08;;;;;;;;;;;25.00;53.30;;;;;;5102068;28;19950;-57
2022/06/26 11:00:36;;;;;;;;;;;25.10;53.40;;;;;;5105549;27;19931;-57
2022/06/26 11:03:12;;;;;;;;;;;25.10;53.60;;;;;;5113573;27;20002;-62
2022/06/26 11:05:39;;;;;;;;;;;25.10;53.70;;;;;;5117357;27;19927;-56
2022/06/26 11:08:05;;;;;;;;;;;25.10;53.70;;;;;;5118988;27;20387;-57
2022/06/26 11:10:33;;;;;;;;;;;25.10;53.80;;;;;;5097042;28;19972;-57
2022/06/26 11:13:00;;;;;;;;;;;25.10;53.80;;;;;;5123633;27;20018;-57
2022/06/26 11:15:27;;;;;;;;;;;25.20;54.00;;;;;;5110692;27;19984;-59
2022/06/26 11:18:07;;;;;;;;;;;25.20;54.00;;;;;;5098079;27;19964;-58
2022/06/26 11:20:49;;;;;;;;;;;25.20;54.10;;;;;;5096888;28;19927;-58
2022/06/26 11:23:18;;;;;;;;;;;25.20;54.20;;;;;;5116070;28;19926;-56
2022/06/26 11:25:45;;;;;;;;;;;25.20;54.20;;;;;;5102807;28;20368;-59
2022/06/26 11:28:12;;;;;;;;;;;25.30;54.40;;;;;;5114851;28;20317;-59
2022/06/26 11:30:39;;;;;;;;;;;25.30;54.50;;;;;;5095915;27;19927;-58
2022/06/26 11:33:08;;;;;;;;;;;25.30;54.50;;;;;;5112393;27;19945;-59
2022/06/26 11:35:35;;;;;;;;;;;25.30;54.50;;;;;;5120071;27;19920;-60
2022/06/26 11:38:09;;;;;;;;;;;25.30;54.70;;;;;;5117223;27;20282;-57
2022/06/26 11:40:35;;;;;;;;;;;25.30;54.80;;;;;;5133680;27;19923;-58
2022/06/26 11:43:02;;;;;;;;;;;25.30;55.00;;;;;;5116782;27;19919;-58
2022/06/26 11:45:31;;;;;;;;;;;25.30;55.10;;;;;;5134698;27;19973;-58
2022/06/26 11:47:58;;;;;;;;;;;25.30;55.10;;;;;;5114483;27;20301;-58
2022/06/26 11:50:29;;;;;;;;;;;25.30;55.10;;;;;;5105438;28;20379;-59
2022/06/26 11:52:56;;;;;;;;;;;25.40;55.10;;;;;;5124673;27;19920;-59
2022/06/26 11:55:23;;;;;;;;;;;25.30;54.90;;;;;;5106108;28;20390;-59
2022/06/26 11:57:49;;;;;;;;;;;25.40;54.90;;;;;;5127367;27;19973;-59
2022/06/26 12:00:17;;;;;;;;;;;25.40;54.90;;;;;;5114763;28;20232;-59
2022/06/26 12:02:44;;;;;;;;;;;25.40;54.80;;;;;;5114349;28;19919;-59
2022/06/26 12:05:11;;;;;;;;;;;25.40;54.70;;;;;;5096857;28;20338;-58
2022/06/26 12:07:42;;;;;;;;;;;25.40;54.80;;;;;;5122575;27;19920;-58
2022/06/26 12:10:09;;;;;;;;;;;25.40;54.80;;;;;;5114404;27;19926;-58
2022/06/26 12:12:36;;;;;;;;;;;25.40;54.80;;;;;;5100264;27;19926;-58
2022/06/26 12:15:03;;;;;;;;;;;25.40;54.90;;;;;;5099918;28;19920;-58
2022/06/26 12:17:30;;;;;;;;;;;25.30;54.80;;;;;;5118469;27;19923;-58
2022/06/26 12:20:05;;;;;;;;;;;25.40;54.90;;;;;;5106318;28;20352;-58
2022/06/26 12:22:32;;;;;;;;;;;25.40;54.90;;;;;;5134616;27;20386;-58
2022/06/26 12:25:01;;;;;;;;;;;25.40;55.00;;;;;;5113296;27;20449;-58
2022/06/26 12:27:35;;;;;;;;;;;25.40;55.00;;;;;;5116232;28;20245;-58
2022/06/26 12:30:02;;;;;;;;;;;25.40;55.00;;;;;;5111180;28;19919;-57
2022/06/26 12:32:28;;;;;;;;;;;25.40;55.10;;;;;;5111730;28;19951;-56
2022/06/26 12:34:55;;;;;;;;;;;25.40;55.10;;;;;;5103902;28;19939;-58
2022/06/26 12:37:22;;;;;;;;;;;25.40;55.10;;;;;;5114683;28;19923;-58
2022/06/26 12:39:50;;;;;;;;;;;25.40;55.20;;;;;;5102045;28;19942;-58
2022/06/26 12:42:18;;;;;;;;;;;25.40;55.20;;;;;;5095574;28;19920;-58
2022/06/26 12:44:44;;;;;;;;;;;25.40;55.20;;;;;;5114136;28;20015;-56
2022/06/26 12:47:11;;;;;;;;;;;25.40;55.10;;;;;;5116461;28;20385;-58
2022/06/26 12:49:38;;;;;;;;;;;25.40;55.20;;;;;;5111885;28;19919;-58
2022/06/26 12:52:07;;;;;;;;;;;25.40;55.20;;;;;;5105556;28;19919;-58
2022/06/26 12:54:34;;;;;;;;;;;25.40;55.30;;;;;;5127250;28;19968;-58
2022/06/26 12:57:00;;;;;;;;;;;25.40;55.30;;;;;;5113925;28;19962;-57
2022/06/26 12:59:28;;;;;;;;;;;25.40;55.40;;;;;;5134511;28;19947;-58
2022/06/26 13:01:55;;;;;;;;;;;25.50;55.50;;;;;;5132011;28;19940;-57
2022/06/26 13:04:22;;;;;;;;;;;25.40;55.40;;;;;;5133986;28;20325;-58
2022/06/26 13:06:49;;;;;;;;;;;25.50;55.40;;;;;;5113685;28;19972;-58
2022/06/26 13:09:15;;;;;;;;;;;25.50;55.40;;;;;;5116399;28;19973;-57
2022/06/26 13:11:43;;;;;;;;;;;25.50;55.30;;;;;;5101585;28;20321;-58
2022/06/26 13:14:10;;;;;;;;;;;25.50;55.30;;;;;;5111648;28;19988;-58
2022/06/26 13:16:38;;;;;;;;;;;25.50;55.30;;;;;;5126191;28;20277;-56
2022/06/26 13:19:05;;;;;;;;;;;25.50;55.40;;;;;;5113343;28;19950;-58
2022/06/26 13:21:32;;;;;;;;;;;25.50;55.40;;;;;;5095902;28;22026;-58
2022/06/26 13:23:58;;;;;;;;;;;25.40;55.30;;;;;;5095558;28;20268;-58
2022/06/26 13:26:25;;;;;;;;;;;25.40;55.30;;;;;;5115624;28;19927;-57
2022/06/26 13:28:52;;;;;;;;;;;25.40;55.30;;;;;;5112160;27;19959;-58
2022/06/26 13:31:18;;;;;;;;;;;25.40;55.30;;;;;;5121099;27;20026;-56
2022/06/26 13:33:46;;;;;;;;;;;25.40;55.40;;;;;;5103997;27;19923;-58
2022/06/26 13:36:13;;;;;;;;;;;25.40;55.30;;;;;;5115289;27;20010;-58
2022/06/26 13:38:40;;;;;;;;;;;25.40;55.30;;;;;;5119414;27;19919;-58
2022/06/26 13:41:07;;;;;;;;;;;25.50;55.40;;;;;;5117535;27;19920;-61
2022/06/26 13:43:33;;;;;;;;;;;25.50;55.40;;;;;;5119837;27;19999;-57
2022/06/26 13:46:00;;;;;;;;;;;25.50;55.40;;;;;;5119169;27;20413;-58
2022/06/26 13:48:29;;;;;;;;;;;25.50;55.40;;;;;;5137214;27;19920;-57
2022/06/26 13:50:57;;;;;;;;;;;25.50;55.40;;;;;;5112013;27;20292;-58
2022/06/26 13:53:23;;;;;;;;;;;25.50;55.40;;;;;;5120621;27;19919;-58
2022/06/26 13:55:50;;;;;;;;;;;25.50;55.40;;;;;;5119619;27;19942;-58
2022/06/26 13:58:17;;;;;;;;;;;25.50;55.40;;;;;;5114647;27;20010;-58
2022/06/26 14:00:44;;;;;;;;;;;25.50;55.30;;;;;;5119389;27;19919;-58
2022/06/26 14:03:11;;;;;;;;;;;25.50;55.20;;;;;;5137413;27;20267;-58
2022/06/26 14:05:37;;;;;;;;;;;25.50;55.10;;;;;;5116165;27;19919;-58
2022/06/26 14:08:06;;;;;;;;;;;25.50;55.10;;;;;;5098610;28;19923;-57
2022/06/26 14:10:33;;;;;;;;;;;25.50;55.00;;;;;;5113457;28;19927;-57
2022/06/26 14:13:00;;;;;;;;;;;25.50;55.00;;;;;;5092587;28;19980;-57
2022/06/26 14:15:26;;;;;;;;;;;25.50;55.00;;;;;;5111669;27;20263;-57
2022/06/26 14:17:53;;;;;;;;;;;25.50;55.00;;;;;;5105298;27;20362;-57
2022/06/26 14:20:20;;;;;;;;;;;25.50;55.00;;;;;;5118472;27;19926;-57
2022/06/26 14:28:17;;;;;;;;;;;25.50;55.10;;;;;;5116302;28;19926;-57
2022/06/26 14:30:44;;;;;;;;;;;25.50;55.20;;;;;;5127227;27;19919;-57
2022/06/26 14:33:10;;;;;;;;;;;25.50;55.30;;;;;;5101831;28;19978;-57
2022/06/26 14:35:37;;;;;;;;;;;25.50;55.40;;;;;;5117212;27;19967;-57